Vermillion Estates, Illinois
Current Conditions -  °F | °C
As of 5:15 PM on Wednesday 17 Dec 2014 (Local Time) from KPNT Reporting Station
Overcast Overcast  
Wind Chill: 20°   Ceiling: 2200
Heat Index: 28°   Visibility: 10mi
Dew Point: 21°   Wind: 7mph
Humidity: 77%   Direction: 320°NW
Pressure: 30.28"   Gusts: NA
Location:  40.8602°N, 88.6284°W
Report Text: KPNT 172315Z AUTO 32006KT 10SM OVC022 M02/M06 A3028 RMK AO2 T10251061
Loading
Personal Weather Stations






























Interactive Weather Map New forecast layout! Learn more

10-Day Weather Forecast

Advertisements
Track Severe Weather on mobile